createdAt,value
2019-05-30T00:01:26.203Z,3.84
2019-05-30T00:03:52.454Z,3.86
2019-05-30T00:06:18.589Z,3.88
2019-05-30T00:08:44.821Z,3.96
2019-05-30T00:11:11.071Z,3.99
2019-05-30T00:13:37.306Z,3.89
2019-05-30T00:16:05.494Z,3.81
2019-05-30T00:18:31.601Z,3.85
2019-05-30T00:20:58.735Z,3.87
2019-05-30T00:23:25.072Z,3.83
2019-05-30T00:25:51.314Z,3.77
2019-05-30T00:28:17.547Z,3.78
2019-05-30T00:30:43.794Z,3.73
2019-05-30T00:33:10.019Z,3.63
2019-05-30T00:35:36.163Z,3.63
2019-05-30T00:38:02.392Z,3.63
2019-05-30T00:40:28.524Z,3.59
2019-05-30T00:42:55.877Z,3.54
2019-05-30T00:45:22.204Z,3.50
2019-05-30T00:47:48.421Z,3.43
2019-05-30T00:50:14.646Z,3.41
2019-05-30T00:52:40.786Z,3.37
2019-05-30T00:55:07.191Z,3.30
2019-05-30T00:57:33.458Z,3.26
2019-05-30T01:00:00.912Z,3.32
2019-05-30T01:02:27.249Z,3.32
2019-05-30T01:04:53.461Z,3.35
2019-05-30T01:07:19.694Z,3.32
2019-05-30T01:09:45.931Z,3.30
2019-05-30T01:12:12.169Z,3.26
2019-05-30T01:14:38.397Z,3.27
2019-05-30T01:17:05.302Z,3.30
2019-05-30T01:19:31.699Z,3.29
2019-05-30T01:21:59.198Z,3.22
2019-05-30T01:24:25.568Z,3.13
2019-05-30T01:26:51.709Z,3.09
2019-05-30T01:29:17.834Z,3.02
2019-05-30T01:31:44.068Z,2.96
2019-05-30T01:34:10.198Z,3.01
2019-05-30T01:36:36.323Z,2.99
2019-05-30T01:39:05.882Z,3.04
2019-05-30T01:41:32.181Z,3.08
2019-05-30T01:43:58.420Z,3.09
2019-05-30T01:46:24.646Z,3.19
2019-05-30T01:48:50.798Z,3.17
2019-05-30T01:51:17.019Z,3.13
2019-05-30T01:53:43.264Z,3.24
2019-05-30T01:56:09.388Z,3.28
2019-05-30T01:58:35.626Z,3.28
2019-05-30T02:01:17.976Z,3.18
2019-05-30T02:03:29.891Z,3.12
2019-05-30T02:05:56.116Z,3.04
2019-05-30T02:08:22.368Z,3.00
2019-05-30T02:10:48.513Z,3.04
2019-05-30T02:13:14.745Z,3.05
2019-05-30T02:15:40.984Z,3.12
2019-05-30T02:18:07.715Z,3.11
2019-05-30T02:20:33.944Z,3.14
2019-05-30T02:23:00.192Z,3.24
2019-05-30T02:25:26.417Z,3.24
2019-05-30T02:27:52.663Z,3.29
2019-05-30T02:30:19.098Z,3.35
2019-05-30T02:32:45.322Z,3.47
2019-05-30T02:35:12.853Z,3.55
2019-05-30T02:37:39.318Z,3.52
2019-05-30T02:40:09.909Z,3.55
2019-05-30T02:42:34.198Z,3.62
2019-05-30T02:45:01.369Z,3.64
2019-05-30T02:47:28.271Z,3.71
2019-05-30T02:49:54.507Z,3.72
2019-05-30T02:52:20.728Z,3.69
2019-05-30T02:54:46.969Z,3.76
2019-05-30T02:57:13.189Z,3.85
2019-05-30T02:59:39.428Z,3.86
2019-05-30T03:02:09.918Z,3.91
2019-05-30T03:04:33.598Z,3.97
2019-05-30T03:07:01.974Z,3.98
2019-05-30T03:09:28.356Z,3.98
2019-05-30T03:11:54.588Z,3.99
2019-05-30T03:14:21.529Z,4.02
2019-05-30T03:16:47.769Z,4.08
2019-05-30T03:19:13.904Z,4.14
2019-05-30T03:21:40.125Z,4.26
2019-05-30T03:24:07.620Z,4.38
2019-05-30T03:26:34.405Z,4.50
2019-05-30T03:29:00.528Z,4.67
2019-05-30T03:31:30.142Z,4.84
2019-05-30T03:33:56.711Z,5.06
2019-05-30T03:36:29.502Z,5.30
2019-05-30T03:38:50.943Z,5.58
2019-05-30T03:41:17.075Z,5.86
2019-05-30T03:43:43.305Z,6.13
2019-05-30T03:46:16.143Z,6.44
2019-05-30T03:48:45.261Z,6.80
2019-05-30T03:51:15.141Z,7.09
2019-05-30T03:53:41.635Z,7.39
2019-05-30T03:56:15.948Z,7.74
2019-05-30T03:59:00.661Z,8.03
2019-05-30T04:01:58.988Z,8.37
2019-05-30T04:04:28.923Z,8.63
2019-05-30T04:06:58.681Z,8.91
2019-05-30T04:09:26.679Z,9.15
2019-05-30T04:12:02.289Z,9.26
2019-05-30T04:14:32.138Z,9.54
2019-05-30T04:16:58.377Z,9.73
2019-05-30T04:19:24.591Z,10.05
2019-05-30T04:21:50.847Z,10.43
2019-05-30T04:24:17.062Z,10.51
2019-05-30T04:26:43.331Z,10.83
2019-05-30T04:29:09.898Z,11.21
2019-05-30T04:31:36.185Z,11.51
2019-05-30T04:34:02.429Z,11.66
2019-05-30T04:36:28.645Z,11.71
2019-05-30T04:38:54.890Z,12.06
2019-05-30T04:41:21.220Z,12.10
2019-05-30T04:43:47.352Z,12.37
2019-05-30T04:46:14.953Z,12.61
2019-05-30T04:48:41.769Z,12.62
2019-05-30T04:51:08.007Z,12.83
2019-05-30T04:53:34.288Z,13.26
2019-05-30T04:56:00.474Z,13.28
2019-05-30T04:58:26.710Z,13.54
2019-05-30T05:00:52.838Z,13.90
2019-05-30T05:03:40.596Z,13.90
2019-05-30T05:05:47.214Z,14.03
2019-05-30T05:08:13.715Z,14.06
2019-05-30T05:10:40.195Z,14.27
2019-05-30T05:13:06.344Z,14.61
2019-05-30T05:15:32.599Z,14.63
2019-05-30T05:17:58.790Z,14.82
2019-05-30T05:20:26.192Z,15.03
2019-05-30T05:22:52.327Z,15.33
2019-05-30T05:25:19.501Z,15.21
2019-05-30T05:27:45.793Z,15.28
2019-05-30T05:30:14.015Z,15.68
2019-05-30T05:32:40.330Z,15.86
2019-05-30T05:35:08.568Z,16.19
2019-05-30T05:37:34.700Z,16.73
2019-05-30T05:40:00.841Z,17.03
2019-05-30T05:42:29.082Z,16.99
2019-05-30T05:44:55.100Z,17.04
2019-05-30T05:47:22.720Z,16.87
2019-05-30T05:49:48.991Z,16.65
2019-05-30T05:52:15.244Z,16.65
2019-05-30T05:54:42.076Z,16.97
2019-05-30T05:57:08.257Z,17.61
2019-05-30T05:59:34.512Z,17.88
2019-05-30T06:02:00.774Z,17.64
2019-05-30T06:04:27.354Z,18.03
2019-05-30T06:06:53.564Z,18.04
2019-05-30T06:09:20.573Z,18.10
2019-05-30T06:11:49.061Z,17.75
2019-05-30T06:14:15.085Z,17.75
2019-05-30T06:16:41.339Z,17.75
2019-05-30T06:19:07.573Z,17.24
2019-05-30T06:21:33.840Z,18.22
2019-05-30T06:24:00.084Z,18.22
2019-05-30T06:26:26.337Z,18.73
2019-05-30T06:28:52.499Z,19.17
2019-05-30T06:31:18.721Z,19.51
2019-05-30T06:33:44.975Z,19.75
2019-05-30T06:36:11.197Z,19.41
2019-05-30T06:38:37.442Z,18.62
2019-05-30T06:41:04.071Z,18.68
2019-05-30T06:43:30.586Z,18.18
2019-05-30T06:45:56.732Z,18.50
2019-05-30T06:48:23.011Z,18.99
2019-05-30T06:50:49.147Z,19.37
2019-05-30T06:53:15.385Z,19.47
2019-05-30T06:55:41.648Z,19.42
2019-05-30T06:58:07.926Z,19.41
2019-05-30T07:00:34.195Z,19.38
2019-05-30T07:03:00.487Z,19.48
2019-05-30T07:05:28.479Z,19.24
2019-05-30T07:07:54.916Z,19.76
2019-05-30T07:10:21.097Z,19.94
2019-05-30T07:12:47.333Z,19.71
2019-05-30T07:15:14.188Z,19.67
2019-05-30T07:17:40.312Z,19.47
2019-05-30T07:20:07.643Z,19.71
2019-05-30T07:22:33.941Z,19.73
2019-05-30T07:25:00.235Z,19.82
2019-05-30T07:27:26.456Z,19.72
2019-05-30T07:29:52.701Z,19.70
2019-05-30T07:32:18.829Z,19.56
2019-05-30T07:34:45.991Z,19.76
2019-05-30T07:37:12.512Z,19.82
2019-05-30T07:39:38.785Z,20.06
2019-05-30T07:42:06.532Z,20.28
2019-05-30T07:44:32.938Z,20.38
2019-05-30T07:46:59.165Z,20.67
2019-05-30T07:49:26.267Z,20.97
2019-05-30T07:51:52.540Z,21.51
2019-05-30T07:54:18.779Z,21.41
2019-05-30T07:56:45.226Z,21.18
2019-05-30T07:59:11.369Z,21.23
2019-05-30T08:01:39.393Z,20.90
2019-05-30T08:04:05.790Z,20.70
2019-05-30T08:06:32.022Z,20.48
2019-05-30T08:08:58.144Z,20.56
2019-05-30T08:11:24.387Z,20.77
2019-05-30T08:13:50.530Z,20.50
2019-05-30T08:16:16.773Z,20.31
2019-05-30T08:18:43.003Z,20.17
2019-05-30T08:21:09.258Z,20.16
2019-05-30T08:23:36.312Z,20.09
2019-05-30T08:26:02.719Z,20.03
2019-05-30T08:28:30.246Z,19.59
2019-05-30T08:30:57.037Z,19.23
2019-05-30T08:33:23.392Z,19.43
2019-05-30T08:35:50.466Z,19.82
2019-05-30T08:38:16.819Z,19.85
2019-05-30T08:40:43.068Z,19.73
2019-05-30T08:43:09.295Z,19.41
2019-05-30T08:45:36.088Z,18.91
2019-05-30T08:48:02.571Z,18.44
2019-05-30T08:50:30.150Z,18.43
2019-05-30T08:52:56.593Z,18.93
2019-05-30T08:55:22.839Z,19.32
2019-05-30T08:57:50.314Z,19.68
2019-05-30T09:00:17.151Z,19.77
2019-05-30T09:02:43.313Z,19.30
2019-05-30T09:05:10.133Z,19.05
2019-05-30T09:07:38.069Z,18.80
2019-05-30T09:10:06.708Z,18.47
2019-05-30T09:12:32.964Z,18.48
2019-05-30T09:14:59.179Z,19.19
2019-05-30T09:17:25.419Z,19.34
2019-05-30T09:19:51.654Z,18.94
2019-05-30T09:22:17.986Z,18.95
2019-05-30T09:24:44.221Z,18.55
2019-05-30T09:27:10.457Z,18.36
2019-05-30T09:29:37.841Z,18.32
2019-05-30T09:32:04.826Z,17.69
2019-05-30T09:34:30.962Z,17.77
2019-05-30T09:36:57.196Z,18.06
2019-05-30T09:39:23.464Z,18.07
2019-05-30T09:41:49.922Z,17.76
2019-05-30T09:44:16.284Z,17.83
2019-05-30T09:46:44.156Z,17.81
2019-05-30T09:49:10.449Z,17.14
2019-05-30T09:51:36.685Z,17.36
2019-05-30T09:54:03.541Z,18.18
2019-05-30T09:56:29.785Z,18.54
2019-05-30T09:58:56.032Z,18.94
2019-05-30T10:01:22.265Z,19.01
2019-05-30T10:03:48.554Z,18.90
2019-05-30T10:06:28.421Z,18.55
2019-05-30T10:08:44.355Z,17.95
2019-05-30T10:11:10.922Z,18.18
2019-05-30T10:13:37.059Z,18.13
2019-05-30T10:16:03.398Z,18.17
2019-05-30T10:18:29.634Z,18.15
2019-05-30T10:20:57.122Z,17.99
2019-05-30T10:23:23.554Z,18.24
2019-05-30T10:25:49.682Z,18.43
2019-05-30T10:28:15.938Z,18.22
2019-05-30T10:30:42.169Z,18.22
2019-05-30T10:33:08.409Z,17.87
2019-05-30T10:35:34.670Z,17.78
2019-05-30T10:38:00.888Z,17.91
2019-05-30T10:40:27.172Z,17.84
2019-05-30T10:42:55.055Z,17.63
2019-05-30T10:45:22.341Z,17.66
2019-05-30T10:47:49.382Z,17.77
2019-05-30T10:50:15.937Z,17.61
2019-05-30T10:52:42.176Z,17.67
2019-05-30T10:55:09.048Z,17.81
2019-05-30T10:57:35.303Z,17.56
2019-05-30T11:00:03.440Z,17.47
2019-05-30T11:02:29.580Z,17.28
2019-05-30T11:04:57.424Z,17.27
2019-05-30T11:07:33.472Z,17.45
2019-05-30T11:10:11.531Z,17.28
2019-05-30T11:12:37.788Z,17.14
2019-05-30T11:15:05.143Z,16.68
2019-05-30T11:17:31.389Z,16.79
2019-05-30T11:19:57.981Z,16.43
2019-05-30T11:22:24.436Z,16.33
2019-05-30T11:24:50.777Z,15.87
2019-05-30T11:27:17.043Z,15.60
2019-05-30T11:29:43.195Z,15.37
2019-05-30T11:32:09.449Z,15.66
2019-05-30T11:34:35.682Z,15.66
2019-05-30T11:37:18.088Z,15.54
2019-05-30T11:39:30.064Z,15.68
2019-05-30T11:41:57.573Z,15.83
2019-05-30T11:44:23.949Z,15.85
2019-05-30T11:46:51.440Z,15.80
2019-05-30T11:49:17.832Z,15.77
2019-05-30T11:51:43.988Z,16.00
2019-05-30T11:54:10.124Z,16.03
2019-05-30T11:56:36.389Z,16.42
2019-05-30T11:59:02.631Z,16.85
2019-05-30T12:01:28.946Z,16.75
2019-05-30T12:03:56.457Z,15.81
2019-05-30T12:06:22.842Z,15.91
2019-05-30T12:08:49.086Z,15.62
2019-05-30T12:11:15.310Z,14.69
2019-05-30T12:13:41.561Z,14.27
2019-05-30T12:16:07.798Z,14.49
2019-05-30T12:18:34.071Z,14.44
2019-05-30T12:21:00.200Z,14.44
2019-05-30T12:23:26.443Z,14.30
2019-05-30T12:25:53.749Z,14.21
2019-05-30T12:28:20.270Z,14.52
2019-05-30T12:30:55.786Z,14.52
2019-05-30T12:33:14.630Z,14.39
2019-05-30T12:35:40.877Z,14.54
2019-05-30T12:38:07.138Z,14.54
2019-05-30T12:40:33.368Z,14.63
2019-05-30T12:43:00.977Z,14.96
2019-05-30T12:45:27.979Z,14.92
2019-05-30T12:47:55.119Z,14.71
2019-05-30T12:50:21.657Z,14.20
2019-05-30T12:52:47.904Z,14.25
2019-05-30T12:55:14.333Z,14.29
2019-05-30T12:57:40.601Z,14.29
2019-05-30T13:00:18.156Z,14.64
2019-05-30T13:02:37.793Z,14.85
2019-05-30T13:05:05.258Z,15.13
2019-05-30T13:07:31.368Z,15.26
2019-05-30T13:09:57.611Z,15.28
2019-05-30T13:12:23.836Z,14.87
2019-05-30T13:14:50.080Z,14.47
2019-05-30T13:17:16.323Z,14.20
2019-05-30T13:19:42.604Z,14.05
2019-05-30T13:22:08.821Z,13.87
2019-05-30T13:24:34.971Z,14.02
2019-05-30T13:27:01.790Z,14.11
2019-05-30T13:29:28.289Z,14.10
2019-05-30T13:31:54.410Z,14.36
2019-05-30T13:34:20.657Z,14.52
2019-05-30T13:36:46.884Z,14.53
2019-05-30T13:39:13.146Z,14.67
2019-05-30T13:41:39.402Z,14.22
2019-05-30T13:44:08.013Z,13.88
2019-05-30T13:46:33.820Z,13.34
2019-05-30T13:49:00.792Z,12.92
2019-05-30T13:51:28.493Z,12.69
2019-05-30T13:53:54.730Z,12.49
2019-05-30T13:56:20.996Z,12.39
2019-05-30T13:58:47.142Z,12.50
2019-05-30T14:01:14.176Z,12.79
2019-05-30T14:03:40.542Z,12.91
2019-05-30T14:06:08.240Z,12.81
2019-05-30T14:08:41.668Z,12.91
2019-05-30T14:11:02.787Z,13.00
2019-05-30T14:13:29.019Z,12.72
2019-05-30T14:15:55.283Z,12.51
2019-05-30T14:18:21.498Z,12.19
2019-05-30T14:20:47.760Z,11.99
2019-05-30T14:23:13.910Z,11.95
2019-05-30T14:25:40.079Z,11.83
2019-05-30T14:28:06.348Z,11.87
2019-05-30T14:30:32.778Z,11.81
2019-05-30T14:32:59.018Z,11.77
2019-05-30T14:35:25.270Z,11.52
2019-05-30T14:37:51.505Z,11.49
2019-05-30T14:40:18.644Z,11.28
2019-05-30T14:42:44.901Z,11.25
2019-05-30T14:45:14.706Z,11.22
2019-05-30T14:47:41.198Z,11.22
2019-05-30T14:50:09.024Z,11.17
2019-05-30T14:52:35.274Z,11.08
2019-05-30T14:55:01.521Z,11.10
2019-05-30T14:57:27.768Z,11.09
2019-05-30T14:59:54.001Z,11.04
2019-05-30T15:02:20.154Z,10.88
2019-05-30T15:04:46.393Z,10.80
2019-05-30T15:07:13.615Z,10.76
2019-05-30T15:09:42.439Z,10.68
2019-05-30T15:12:08.728Z,10.57
2019-05-30T15:14:35.031Z,10.36
2019-05-30T15:17:01.280Z,10.29
2019-05-30T15:19:27.521Z,10.23
2019-05-30T15:21:53.755Z,10.14
2019-05-30T15:24:20.018Z,10.14
2019-05-30T15:26:46.156Z,10.15
2019-05-30T15:29:12.448Z,10.13
2019-05-30T15:31:38.686Z,10.15
2019-05-30T15:34:04.944Z,10.20
2019-05-30T15:36:31.072Z,10.06
2019-05-30T15:38:57.323Z,9.91
2019-05-30T15:41:23.445Z,9.79
2019-05-30T15:43:49.709Z,9.78
2019-05-30T15:46:15.974Z,9.73
2019-05-30T15:48:42.211Z,9.67
2019-05-30T15:51:10.451Z,9.60
2019-05-30T15:53:36.732Z,9.51
2019-05-30T15:56:02.957Z,9.45
2019-05-30T15:58:29.111Z,9.44
2019-05-30T16:00:55.340Z,9.44
2019-05-30T16:03:21.585Z,9.32
2019-05-30T16:05:47.843Z,9.26
2019-05-30T16:08:14.750Z,9.21
2019-05-30T16:10:41.112Z,9.15
2019-05-30T16:13:07.362Z,8.99
2019-05-30T16:15:33.618Z,8.87
2019-05-30T16:17:59.875Z,8.74
2019-05-30T16:20:26.013Z,8.66
2019-05-30T16:22:52.179Z,8.60
2019-05-30T16:25:19.597Z,8.56
2019-05-30T16:27:46.047Z,8.42
2019-05-30T16:30:17.061Z,8.28
2019-05-30T16:32:40.453Z,8.17
2019-05-30T16:35:08.597Z,8.11
2019-05-30T16:37:34.847Z,8.03
2019-05-30T16:40:06.018Z,8.00
2019-05-30T16:42:29.256Z,7.95
2019-05-30T16:44:55.521Z,7.96
2019-05-30T16:47:22.494Z,7.90
2019-05-30T16:49:48.706Z,7.88
2019-05-30T16:52:14.832Z,7.81
2019-05-30T16:54:41.081Z,7.83
2019-05-30T16:57:07.303Z,7.76
2019-05-30T16:59:33.533Z,7.70
2019-05-30T17:01:59.688Z,7.71
2019-05-30T17:04:27.162Z,7.69
2019-05-30T17:06:53.572Z,7.65
2019-05-30T17:09:19.703Z,7.62
2019-05-30T17:11:45.892Z,7.61
2019-05-30T17:14:12.128Z,7.60
2019-05-30T17:16:38.369Z,7.61
2019-05-30T17:19:04.617Z,7.61
2019-05-30T17:21:30.869Z,7.60
2019-05-30T17:23:57.098Z,7.63
2019-05-30T17:26:23.346Z,7.60
2019-05-30T17:28:49.588Z,7.56
2019-05-30T17:31:15.730Z,7.55
2019-05-30T17:33:41.956Z,7.51
2019-05-30T17:36:08.208Z,7.47
2019-05-30T17:38:34.348Z,7.44
2019-05-30T17:41:00.483Z,7.45
2019-05-30T17:43:27.122Z,7.46
2019-05-30T17:45:53.465Z,7.43
2019-05-30T17:48:19.728Z,7.43
2019-05-30T17:50:45.966Z,7.41
2019-05-30T17:53:12.234Z,7.39
2019-05-30T17:55:38.469Z,7.43
2019-05-30T17:58:04.715Z,7.43
2019-05-30T18:00:30.964Z,7.43
2019-05-30T18:02:57.109Z,7.40
2019-05-30T18:05:24.588Z,7.40
2019-05-30T18:07:50.997Z,7.35
2019-05-30T18:10:17.735Z,7.36
2019-05-30T18:12:43.984Z,7.35
2019-05-30T18:15:14.279Z,7.29
2019-05-30T18:17:40.527Z,7.25
2019-05-30T18:20:07.882Z,7.23
2019-05-30T18:22:34.135Z,7.18
2019-05-30T18:25:00.364Z,7.14
2019-05-30T18:27:27.948Z,7.09
2019-05-30T18:29:54.363Z,7.09
2019-05-30T18:32:21.908Z,7.10
2019-05-30T18:34:48.359Z,7.07
2019-05-30T18:37:14.493Z,7.06
2019-05-30T18:39:40.633Z,7.06
2019-05-30T18:42:06.860Z,7.03
2019-05-30T18:44:34.384Z,7.02
2019-05-30T18:47:00.755Z,7.02
2019-05-30T18:49:27.194Z,7.03
2019-05-30T18:51:53.326Z,7.03
2019-05-30T18:54:19.571Z,7.02
2019-05-30T18:56:45.809Z,7.00
2019-05-30T18:59:12.058Z,7.00
2019-05-30T19:01:38.304Z,6.99
2019-05-30T19:04:04.794Z,7.00
2019-05-30T19:06:31.950Z,6.98
2019-05-30T19:08:58.475Z,6.99
2019-05-30T19:11:29.819Z,6.98
2019-05-30T19:13:52.859Z,6.98
2019-05-30T19:16:19.004Z,6.97
2019-05-30T19:18:45.149Z,6.95
2019-05-30T19:21:11.410Z,6.94
2019-05-30T19:23:39.571Z,6.91
2019-05-30T19:26:05.793Z,6.86
2019-05-30T19:28:32.545Z,6.81
2019-05-30T19:30:58.903Z,6.81
2019-05-30T19:33:25.130Z,6.79
2019-05-30T19:35:51.385Z,6.82
2019-05-30T19:38:17.531Z,6.81
2019-05-30T19:40:43.811Z,6.82
2019-05-30T19:43:09.950Z,6.81
2019-05-30T19:45:36.301Z,6.78
2019-05-30T19:48:02.535Z,6.75
2019-05-30T19:50:28.803Z,6.75
2019-05-30T19:52:54.932Z,6.75
2019-05-30T19:55:21.683Z,6.75
2019-05-30T19:57:48.141Z,6.75
2019-05-30T20:00:14.581Z,6.75
2019-05-30T20:02:40.721Z,6.76
2019-05-30T20:05:07.352Z,6.76
2019-05-30T20:07:34.613Z,6.73
2019-05-30T20:10:02.044Z,6.72
2019-05-30T20:12:28.300Z,6.69
2019-05-30T20:14:54.533Z,6.70
2019-05-30T20:17:20.788Z,6.69
2019-05-30T20:19:47.021Z,6.67
2019-05-30T20:22:13.157Z,6.66
2019-05-30T20:24:40.519Z,6.66
2019-05-30T20:27:06.946Z,6.65
2019-05-30T20:29:33.196Z,6.63
2019-05-30T20:31:59.444Z,6.64
2019-05-30T20:34:25.675Z,6.63
2019-05-30T20:36:51.822Z,6.63
2019-05-30T20:39:18.055Z,6.64
2019-05-30T20:41:44.295Z,6.66
2019-05-30T20:44:10.449Z,6.67
2019-05-30T20:46:37.111Z,6.66
2019-05-30T20:49:03.789Z,6.68
2019-05-30T20:51:30.017Z,6.71
2019-05-30T20:53:56.259Z,6.71
2019-05-30T20:56:22.400Z,6.72
2019-05-30T20:58:48.635Z,6.72
2019-05-30T21:01:14.778Z,6.74
2019-05-30T21:03:41.766Z,6.76
2019-05-30T21:06:08.474Z,6.76
2019-05-30T21:08:36.965Z,6.78
2019-05-30T21:11:03.258Z,6.80
2019-05-30T21:13:33.098Z,6.81
2019-05-30T21:16:00.831Z,6.83
2019-05-30T21:18:27.074Z,6.82
2019-05-30T21:20:53.310Z,6.83
2019-05-30T21:23:19.564Z,6.84
2019-05-30T21:25:47.092Z,6.84
2019-05-30T21:28:13.563Z,6.84
2019-05-30T21:30:41.227Z,6.82
2019-05-30T21:33:07.748Z,6.84
2019-05-30T21:35:33.946Z,6.83
2019-05-30T21:38:00.148Z,6.84
2019-05-30T21:40:26.389Z,6.84
2019-05-30T21:43:05.089Z,6.84
2019-05-30T21:45:20.703Z,6.84
2019-05-30T21:47:46.957Z,6.85
2019-05-30T21:50:14.773Z,6.85
2019-05-30T21:52:41.478Z,6.86
2019-05-30T21:55:07.851Z,6.85
2019-05-30T21:57:34.082Z,6.86
2019-05-30T22:00:00.319Z,6.84
2019-05-30T22:02:26.576Z,6.86
2019-05-30T22:04:52.795Z,6.85
2019-05-30T22:07:19.051Z,6.84
2019-05-30T22:09:45.327Z,6.86
2019-05-30T22:12:11.539Z,6.87
2019-05-30T22:14:37.689Z,6.87
2019-05-30T22:17:03.917Z,6.88
2019-05-30T22:19:30.171Z,6.89
2019-05-30T22:21:56.416Z,6.89
2019-05-30T22:24:22.667Z,6.89
2019-05-30T22:26:48.928Z,6.90
2019-05-30T22:29:15.183Z,6.91
2019-05-30T22:31:42.502Z,6.92
2019-05-30T22:34:08.871Z,6.94
2019-05-30T22:36:35.119Z,6.94
2019-05-30T22:39:01.349Z,6.96
2019-05-30T22:41:27.592Z,6.97
2019-05-30T22:43:53.820Z,6.97
2019-05-30T22:46:20.068Z,6.98
2019-05-30T22:48:46.519Z,6.98
2019-05-30T22:51:12.849Z,6.98
2019-05-30T22:53:38.987Z,6.98
2019-05-30T22:56:05.141Z,7.00
2019-05-30T22:58:31.375Z,7.02
2019-05-30T23:00:57.633Z,7.01
2019-05-30T23:03:23.769Z,7.01
2019-05-30T23:05:51.365Z,7.02
2019-05-30T23:08:17.754Z,7.02
2019-05-30T23:10:44.001Z,7.02
2019-05-30T23:13:10.231Z,7.03
2019-05-30T23:15:36.371Z,7.03
2019-05-30T23:18:03.020Z,7.02
2019-05-30T23:20:29.254Z,7.01
2019-05-30T23:22:55.496Z,7.02
2019-05-30T23:25:21.722Z,7.02
2019-05-30T23:27:47.872Z,7.02
2019-05-30T23:30:14.315Z,7.02
2019-05-30T23:32:40.569Z,7.03
2019-05-30T23:35:07.014Z,7.05
2019-05-30T23:37:33.305Z,7.03
2019-05-30T23:39:59.435Z,7.03
2019-05-30T23:42:25.584Z,7.05
2019-05-30T23:44:51.713Z,7.05
2019-05-30T23:47:18.034Z,7.05
2019-05-30T23:49:44.415Z,7.06
2019-05-30T23:52:10.672Z,7.06
2019-05-30T23:54:36.813Z,7.05
2019-05-30T23:57:03.376Z,7.06
2019-05-30T23:59:29.623Z,7.06
